createdAt,value
2019-06-15T00:01:37.217Z,101931.61
2019-06-15T00:04:06.853Z,101941.32
2019-06-15T00:06:36.489Z,101934.58
2019-06-15T00:09:07.685Z,101933.56
2019-06-15T00:11:37.297Z,101939.43
2019-06-15T00:14:07.739Z,101945.52
2019-06-15T00:16:37.660Z,101947.44
2019-06-15T00:19:07.355Z,101952.56
2019-06-15T00:21:36.965Z,101947.23
2019-06-15T00:24:06.625Z,101946.03
2019-06-15T00:26:36.245Z,101955.53
2019-06-15T00:29:05.862Z,101949.45
2019-06-15T00:31:36.327Z,101947.28
2019-06-15T00:34:06.107Z,101949.23
2019-06-15T00:36:35.728Z,101950.83
2019-06-15T00:39:07.989Z,101949.03
2019-06-15T00:41:37.789Z,101945.73
2019-06-15T00:44:07.397Z,101937.28
2019-06-15T00:46:37.079Z,101935.42
2019-06-15T00:49:06.722Z,101941.13
2019-06-15T00:51:36.315Z,101937.50
2019-06-15T00:54:06.231Z,101935.34
2019-06-15T00:56:35.850Z,101930.80
2019-06-15T00:59:05.482Z,101933.42
2019-06-15T01:01:35.574Z,101937.12
2019-06-15T01:04:05.380Z,101932.00
2019-06-15T01:06:35.073Z,101926.88
2019-06-15T01:09:06.402Z,101929.18
2019-06-15T01:11:36.027Z,101921.35
2019-06-15T01:14:05.709Z,101915.73
2019-06-15T01:16:35.380Z,101912.89
2019-06-15T01:19:05.563Z,101910.77
2019-06-15T01:21:35.179Z,101897.83
2019-06-15T01:24:05.196Z,101891.41
2019-06-15T01:26:34.808Z,101890.48
2019-06-15T01:29:04.446Z,101886.33
2019-06-15T01:31:35.172Z,101887.53
2019-06-15T01:34:04.875Z,101883.45
2019-06-15T01:36:34.492Z,101886.66
2019-06-15T01:39:06.345Z,101893.84
2019-06-15T01:41:36.125Z,101891.94
2019-06-15T01:44:05.741Z,101892.79
2019-06-15T01:46:35.446Z,101887.50
2019-06-15T01:49:05.198Z,101886.55
2019-06-15T01:51:34.820Z,101896.88
2019-06-15T01:54:04.825Z,101891.87
2019-06-15T01:56:34.440Z,101884.50
2019-06-15T01:59:14.197Z,101873.80
2019-06-15T02:01:45.111Z,101871.38
2019-06-15T02:04:14.738Z,101873.13
2019-06-15T02:06:45.637Z,101877.37
2019-06-15T02:09:15.261Z,101868.17
2019-06-15T02:11:44.888Z,101871.18
2019-06-15T02:14:14.526Z,101875.76
2019-06-15T02:16:44.137Z,101886.45
2019-06-15T02:19:14.938Z,101897.08
2019-06-15T02:21:44.587Z,101886.30
2019-06-15T02:24:14.676Z,101888.42
2019-06-15T02:26:44.365Z,101887.50
2019-06-15T02:29:14.053Z,101882.88
2019-06-15T02:31:43.695Z,101886.13
2019-06-15T02:34:13.288Z,101884.38
2019-06-15T02:36:43.508Z,101882.47
2019-06-15T02:39:13.143Z,101884.68
2019-06-15T02:41:42.776Z,101880.68
2019-06-15T02:44:12.500Z,101880.94
2019-06-15T02:46:42.144Z,101880.09
2019-06-15T02:49:11.761Z,101886.80
2019-06-15T02:51:41.884Z,101894.55
2019-06-15T02:54:11.510Z,101897.34
2019-06-15T02:56:41.128Z,101896.25
2019-06-15T02:59:10.781Z,101897.84
2019-06-15T03:01:40.398Z,101888.30
2019-06-15T03:04:10.098Z,101880.66
2019-06-15T03:06:39.813Z,101885.11
2019-06-15T03:09:09.445Z,101887.94
2019-06-15T03:11:39.810Z,101885.98
2019-06-15T03:14:09.484Z,101875.15
2019-06-15T03:16:39.104Z,101861.75
2019-06-15T03:19:09.288Z,101862.12
2019-06-15T03:21:39.774Z,101857.34
2019-06-15T03:24:09.831Z,101866.37
2019-06-15T03:26:39.449Z,101869.03
2019-06-15T03:29:09.125Z,101864.70
2019-06-15T03:31:38.751Z,101862.03
2019-06-15T03:34:08.357Z,101868.48
2019-06-15T03:36:38.019Z,101864.29
2019-06-15T03:39:08.104Z,101864.91
2019-06-15T03:41:37.726Z,101868.78
2019-06-15T03:44:07.641Z,101869.73
2019-06-15T03:46:37.327Z,101862.74
2019-06-15T03:49:06.951Z,101867.67
2019-06-15T03:51:36.626Z,101866.30
2019-06-15T03:54:06.250Z,101869.57
2019-06-15T03:56:35.873Z,101868.90
2019-06-15T03:59:05.530Z,101873.02
2019-06-15T04:01:38.564Z,101865.05
2019-06-15T04:04:08.187Z,101866.13
2019-06-15T04:06:37.909Z,101865.22
2019-06-15T04:09:08.255Z,101864.69
2019-06-15T04:11:38.050Z,101867.86
2019-06-15T04:14:07.706Z,101868.10
2019-06-15T04:16:37.321Z,101869.33
2019-06-15T04:19:06.954Z,101867.27
2019-06-15T04:21:36.625Z,101861.30
2019-06-15T04:24:06.233Z,101855.83
2019-06-15T04:26:36.553Z,101851.98
2019-06-15T04:29:06.691Z,101848.62
2019-06-15T04:31:39.733Z,101847.75
2019-06-15T04:34:07.636Z,101849.06
2019-06-15T04:36:37.279Z,101852.39
2019-06-15T04:39:07.267Z,101840.22
2019-06-15T04:41:36.900Z,101840.22
2019-06-15T04:44:06.588Z,101843.65
2019-06-15T04:46:36.193Z,101842.72
2019-06-15T04:49:06.583Z,101839.33
2019-06-15T04:51:36.235Z,101839.93
2019-06-15T04:54:05.861Z,101842.20
2019-06-15T04:56:47.833Z,101831.02
2019-06-15T04:59:06.889Z,101837.41
2019-06-15T05:01:36.520Z,101846.60
2019-06-15T05:04:06.148Z,101846.60
2019-06-15T05:06:37.440Z,101854.03
2019-06-15T05:09:07.131Z,101854.97
2019-06-15T05:11:36.771Z,101858.43
2019-06-15T05:14:06.433Z,101860.56
2019-06-15T05:16:36.528Z,101855.52
2019-06-15T05:19:06.167Z,101855.52
2019-06-15T05:21:35.892Z,101857.58
2019-06-15T05:24:08.546Z,101855.09
2019-06-15T05:26:36.860Z,101851.25
2019-06-15T05:29:06.504Z,101846.20
2019-06-15T05:31:37.303Z,101847.36
2019-06-15T05:34:06.941Z,101851.27
2019-06-15T05:36:36.619Z,101851.27
2019-06-15T05:39:07.274Z,101850.80
2019-06-15T05:41:36.896Z,101839.28
2019-06-15T05:44:06.617Z,101820.81
2019-06-15T05:46:36.243Z,101809.16
2019-06-15T05:49:05.859Z,101796.67
2019-06-15T05:51:35.509Z,101800.92
2019-06-15T05:54:05.130Z,101803.27
2019-06-15T05:56:34.769Z,101809.74
2019-06-15T05:59:04.447Z,101818.80
2019-06-15T06:01:34.077Z,101815.39
2019-06-15T06:04:03.821Z,101812.56
2019-06-15T06:06:33.443Z,101813.85
2019-06-15T06:09:05.030Z,101813.88
2019-06-15T06:11:34.721Z,101816.34
2019-06-15T06:14:04.773Z,101819.38
2019-06-15T06:16:34.399Z,101815.96
2019-06-15T06:19:04.088Z,101808.69
2019-06-15T06:21:33.734Z,101806.57
2019-06-15T06:24:03.370Z,101798.09
2019-06-15T06:26:33.337Z,101795.75
2019-06-15T06:29:03.933Z,101791.27
2019-06-15T06:31:33.551Z,101793.75
2019-06-15T06:34:03.653Z,101794.21
2019-06-15T06:36:33.574Z,101794.33
2019-06-15T06:39:04.866Z,101791.86
2019-06-15T06:41:34.482Z,101785.23
2019-06-15T06:44:04.611Z,101779.23
2019-06-15T06:46:34.231Z,101785.13
2019-06-15T06:49:03.984Z,101775.59
2019-06-15T06:51:33.658Z,101778.77
2019-06-15T06:54:03.473Z,101778.52
2019-06-15T06:56:33.453Z,101777.55
2019-06-15T06:59:03.227Z,101778.84
2019-06-15T07:01:32.857Z,101774.25
2019-06-15T07:04:02.614Z,101778.14
2019-06-15T07:06:32.262Z,101779.30
2019-06-15T07:09:01.892Z,101775.77
2019-06-15T07:11:31.510Z,101770.94
2019-06-15T07:14:01.196Z,101758.56
2019-06-15T07:16:30.808Z,101747.94
2019-06-15T07:19:00.509Z,101739.69
2019-06-15T07:21:30.943Z,101737.68
2019-06-15T07:24:00.638Z,101747.11
2019-06-15T07:26:30.268Z,101758.31
2019-06-15T07:28:59.935Z,101769.97
2019-06-15T07:31:29.552Z,101772.20
2019-06-15T07:33:59.168Z,101778.58
2019-06-15T07:36:28.915Z,101766.88
2019-06-15T07:38:58.559Z,101754.02
2019-06-15T07:41:28.194Z,101752.12
2019-06-15T07:43:57.844Z,101738.79
2019-06-15T07:46:27.474Z,101731.58
2019-06-15T07:48:57.101Z,101720.27
2019-06-15T07:51:27.294Z,101723.55
2019-06-15T07:53:56.935Z,101721.31
2019-06-15T07:56:26.607Z,101723.91
2019-06-15T07:58:56.280Z,101734.02
2019-06-15T08:01:25.905Z,101739.42
2019-06-15T08:03:55.516Z,101749.08
2019-06-15T08:06:25.180Z,101734.70
2019-06-15T08:08:55.162Z,101741.31
2019-06-15T08:11:24.787Z,101738.67
2019-06-15T08:13:54.517Z,101740.90
2019-06-15T08:16:24.164Z,101746.04
2019-06-15T08:18:53.814Z,101743.66
2019-06-15T08:21:23.509Z,101733.99
2019-06-15T08:23:53.131Z,101736.68
2019-06-15T08:26:22.838Z,101731.23
2019-06-15T08:28:52.470Z,101727.08
2019-06-15T08:31:23.102Z,101721.74
2019-06-15T08:33:52.719Z,101719.86
2019-06-15T08:36:22.404Z,101717.36
2019-06-15T08:38:53.061Z,101715.80
2019-06-15T08:41:22.688Z,101717.77
2019-06-15T08:43:52.384Z,101717.66
2019-06-15T08:46:22.074Z,101710.55
2019-06-15T08:48:51.710Z,101710.64
2019-06-15T08:51:21.370Z,101701.44
2019-06-15T08:53:50.979Z,101683.11
2019-06-15T08:56:20.613Z,101670.69
2019-06-15T08:58:55.384Z,101656.50
2019-06-15T09:01:21.663Z,101658.47
2019-06-15T09:03:51.472Z,101667.83
2019-06-15T09:06:21.335Z,101669.19
2019-06-15T09:08:53.006Z,101674.50
2019-06-15T09:11:22.634Z,101683.73
2019-06-15T09:13:53.410Z,101675.59
2019-06-15T09:16:25.746Z,101680.43
2019-06-15T09:18:57.434Z,101684.94
2019-06-15T09:21:26.486Z,101681.52
2019-06-15T09:23:56.114Z,101671.76
2019-06-15T09:26:25.745Z,101657.60
2019-06-15T09:29:10.280Z,101663.27
2019-06-15T09:31:27.898Z,101662.12
2019-06-15T09:33:57.512Z,101662.80
2019-06-15T09:36:28.226Z,101647.90
2019-06-15T09:38:58.001Z,101643.89
2019-06-15T09:41:27.989Z,101624.30
2019-06-15T09:43:58.028Z,101614.03
2019-06-15T09:46:27.939Z,101605.57
2019-06-15T09:48:57.570Z,101597.70
2019-06-15T09:51:27.224Z,101578.36
2019-06-15T09:53:56.841Z,101566.48
2019-06-15T09:56:26.473Z,101574.88
2019-06-15T09:58:56.428Z,101568.72
2019-06-15T10:01:26.050Z,101563.61
2019-06-15T10:03:55.668Z,101568.68
2019-06-15T10:06:25.344Z,101562.19
2019-06-15T10:08:54.994Z,101556.84
2019-06-15T10:11:24.632Z,101561.77
2019-06-15T10:13:54.306Z,101574.98
2019-06-15T10:16:23.940Z,101567.75
2019-06-15T10:18:53.550Z,101571.38
2019-06-15T10:21:23.252Z,101579.91
2019-06-15T10:23:52.972Z,101571.84
2019-06-15T10:26:24.504Z,101571.92
2019-06-15T10:28:55.930Z,101572.51
2019-06-15T10:31:25.869Z,101579.88
2019-06-15T10:33:57.393Z,101573.81
2019-06-15T10:36:27.082Z,101569.64
2019-06-15T10:38:57.642Z,101569.23
2019-06-15T10:41:27.278Z,101564.44
2019-06-15T10:43:58.580Z,101567.45
2019-06-15T10:46:29.872Z,101561.35
2019-06-15T10:48:59.511Z,101555.91
2019-06-15T10:51:29.210Z,101567.16
2019-06-15T10:53:59.912Z,101567.58
2019-06-15T10:56:29.768Z,101566.83
2019-06-15T10:58:59.593Z,101569.75
2019-06-15T11:01:29.347Z,101560.05
2019-06-15T11:03:59.055Z,101565.16
2019-06-15T11:06:30.322Z,101555.78
2019-06-15T11:09:01.669Z,101553.94
2019-06-15T11:11:31.886Z,101541.36
2019-06-15T11:14:01.604Z,101541.23
2019-06-15T11:16:31.306Z,101529.72
2019-06-15T11:19:06.764Z,101526.36
2019-06-15T11:21:37.942Z,101508.35
2019-06-15T11:24:14.149Z,101506.09
2019-06-15T11:26:44.389Z,101510.47
2019-06-15T11:29:14.020Z,101492.75
2019-06-15T11:31:43.822Z,101496.17
2019-06-15T11:34:13.485Z,101489.73
2019-06-15T11:36:43.197Z,101481.34
2019-06-15T11:39:13.678Z,101484.54
2019-06-15T11:41:43.319Z,101477.80
2019-06-15T11:44:13.325Z,101482.59
2019-06-15T11:46:42.970Z,101482.41
2019-06-15T11:49:12.587Z,101473.39
2019-06-15T11:51:42.219Z,101477.42
2019-06-15T11:54:11.866Z,101465.25
2019-06-15T11:56:41.481Z,101456.53
2019-06-15T11:59:11.097Z,101463.08
2019-06-15T12:01:41.163Z,101461.17
2019-06-15T12:04:10.784Z,101458.97
2019-06-15T12:06:40.466Z,101465.56
2019-06-15T12:09:10.928Z,101474.72
2019-06-15T12:11:40.629Z,101479.05
2019-06-15T12:14:10.822Z,101483.00
2019-06-15T12:16:40.593Z,101478.85
2019-06-15T12:19:10.519Z,101483.83
2019-06-15T12:21:40.163Z,101476.93
2019-06-15T12:24:09.836Z,101476.33
2019-06-15T12:26:39.474Z,101478.83
2019-06-15T12:29:09.114Z,101468.94
2019-06-15T12:31:38.790Z,101478.08
2019-06-15T12:34:08.428Z,101479.12
2019-06-15T12:36:38.082Z,101472.99
2019-06-15T12:39:07.889Z,101482.62
2019-06-15T12:41:37.536Z,101480.39
2019-06-15T12:44:07.270Z,101466.55
2019-06-15T12:46:36.977Z,101461.84
2019-06-15T12:49:06.684Z,101459.74
2019-06-15T12:51:36.327Z,101452.89
2019-06-15T12:54:06.065Z,101448.50
2019-06-15T12:56:35.800Z,101449.35
2019-06-15T12:59:05.400Z,101447.09
2019-06-15T13:01:35.126Z,101436.15
2019-06-15T13:04:04.904Z,101425.22
2019-06-15T13:06:34.548Z,101422.28
2019-06-15T13:09:06.050Z,101427.00
2019-06-15T13:11:35.690Z,101432.38
2019-06-15T13:14:05.551Z,101420.02
2019-06-15T13:16:39.268Z,101416.73
2019-06-15T13:19:07.111Z,101418.48
2019-06-15T13:21:36.809Z,101417.80
2019-06-15T13:24:06.516Z,101410.77
2019-06-15T13:26:36.143Z,101409.94
2019-06-15T13:29:05.866Z,101415.98
2019-06-15T13:31:35.508Z,101412.53
2019-06-15T13:34:05.189Z,101413.84
2019-06-15T13:36:34.804Z,101413.66
2019-06-15T13:39:06.865Z,101413.33
2019-06-15T13:41:37.169Z,101406.78
2019-06-15T13:44:09.920Z,101408.77
2019-06-15T13:46:39.589Z,101408.09
2019-06-15T13:49:09.366Z,101400.23
2019-06-15T13:51:39.015Z,101386.18
2019-06-15T13:54:08.718Z,101387.98
2019-06-15T13:56:38.355Z,101378.17
2019-06-15T13:59:08.122Z,101380.46
2019-06-15T14:01:37.859Z,101375.39
2019-06-15T14:04:07.564Z,101387.62
2019-06-15T14:06:37.982Z,101389.10
2019-06-15T14:09:10.526Z,101377.17
2019-06-15T14:11:41.973Z,101384.53
2019-06-15T14:14:11.716Z,101379.28
2019-06-15T14:16:42.302Z,101376.81
2019-06-15T14:19:12.140Z,101374.01
2019-06-15T14:21:41.775Z,101381.70
2019-06-15T14:24:11.451Z,101366.14
2019-06-15T14:26:43.003Z,101372.86
2019-06-15T14:29:12.810Z,101375.42
2019-06-15T14:31:50.049Z,101376.06
2019-06-15T14:34:13.813Z,101364.92
2019-06-15T14:36:43.496Z,101361.63
2019-06-15T14:39:13.460Z,101354.28
2019-06-15T14:41:46.810Z,101342.98
2019-06-15T14:44:15.370Z,101341.62
2019-06-15T14:46:45.045Z,101344.89
2019-06-15T14:49:14.689Z,101332.27
2019-06-15T14:51:44.619Z,101341.56
2019-06-15T14:54:16.198Z,101322.89
2019-06-15T14:56:46.056Z,101323.48
2019-06-15T14:59:15.712Z,101311.91
2019-06-15T15:01:47.033Z,101305.22
2019-06-15T15:04:17.041Z,101305.55
2019-06-15T15:06:47.249Z,101301.97
2019-06-15T15:09:17.135Z,101300.50
2019-06-15T15:11:46.802Z,101293.11
2019-06-15T15:14:17.429Z,101293.73
2019-06-15T15:16:47.458Z,101294.55
2019-06-15T15:19:17.180Z,101288.83
2019-06-15T15:21:46.816Z,101276.88
2019-06-15T15:24:16.829Z,101267.06
2019-06-15T15:26:47.149Z,101259.92
2019-06-15T15:29:17.151Z,101264.56
2019-06-15T15:31:46.845Z,101266.37
2019-06-15T15:34:17.360Z,101253.77
2019-06-15T15:36:47.251Z,101259.85
2019-06-15T15:39:17.113Z,101253.17
2019-06-15T15:41:47.161Z,101252.52
2019-06-15T15:44:16.865Z,101254.64
2019-06-15T15:46:46.523Z,101262.03
2019-06-15T15:49:16.497Z,101259.41
2019-06-15T15:51:47.308Z,101244.89
2019-06-15T15:54:17.142Z,101243.74
2019-06-15T15:56:46.917Z,101245.87
2019-06-15T15:59:16.468Z,101238.70
2019-06-15T16:01:46.375Z,101228.72
2019-06-15T16:04:17.051Z,101226.92
2019-06-15T16:06:46.955Z,101218.42
2019-06-15T16:09:17.065Z,101215.18
2019-06-15T16:11:46.779Z,101215.53
2019-06-15T16:14:16.690Z,101213.77
2019-06-15T16:16:46.949Z,101210.49
2019-06-15T16:19:17.227Z,101200.11
2019-06-15T16:21:47.258Z,101194.41
2019-06-15T16:24:16.998Z,101187.76
2019-06-15T16:26:46.909Z,101181.73
2019-06-15T16:29:16.881Z,101172.60
2019-06-15T16:31:49.532Z,101169.03
2019-06-15T16:34:22.298Z,101169.25
2019-06-15T16:36:53.447Z,101169.63
2019-06-15T16:39:23.184Z,101163.93
2019-06-15T16:42:01.133Z,101164.41
2019-06-15T16:44:36.709Z,101147.66
2019-06-15T16:47:06.879Z,101157.50
2019-06-15T16:49:36.490Z,101154.42
2019-06-15T16:52:06.312Z,101147.88
2019-06-15T16:54:37.622Z,101146.12
2019-06-15T16:57:07.263Z,101144.69
2019-06-15T16:59:37.003Z,101139.66
2019-06-15T17:02:06.621Z,101139.84
2019-06-15T17:04:37.884Z,101139.36
2019-06-15T17:07:07.578Z,101142.67
2019-06-15T17:09:37.207Z,101149.56
2019-06-15T17:12:06.855Z,101142.61
2019-06-15T17:14:36.792Z,101156.80
2019-06-15T17:17:06.589Z,101160.05
2019-06-15T17:19:36.374Z,101152.75
2019-06-15T17:22:18.619Z,101149.99
2019-06-15T17:24:41.791Z,101148.84
2019-06-15T17:27:11.529Z,101139.74
2019-06-15T17:29:41.331Z,101143.14
2019-06-15T17:32:10.958Z,101134.19
2019-06-15T17:34:40.647Z,101130.62
2019-06-15T17:37:10.393Z,101126.86
2019-06-15T17:39:40.011Z,101117.91
2019-06-15T17:42:09.642Z,101104.72
2019-06-15T17:44:39.294Z,101097.86
2019-06-15T17:47:08.922Z,101089.86
2019-06-15T17:49:39.514Z,101078.11
2019-06-15T17:52:09.206Z,101064.77
2019-06-15T17:54:38.837Z,101057.25
2019-06-15T17:57:08.472Z,101052.70
2019-06-15T17:59:38.158Z,101040.48
2019-06-15T18:02:07.799Z,101023.20
2019-06-15T18:04:37.562Z,101024.65
2019-06-15T18:07:07.250Z,101028.08
2019-06-15T18:09:37.281Z,101023.00
2019-06-15T18:12:06.985Z,101023.67
2019-06-15T18:14:36.885Z,101020.39
2019-06-15T18:17:07.217Z,101015.66
2019-06-15T18:19:37.106Z,101013.72
2019-06-15T18:22:07.269Z,101011.92
2019-06-15T18:24:37.322Z,101007.53
2019-06-15T18:27:09.650Z,101005.89
2019-06-15T18:29:38.455Z,101019.61
2019-06-15T18:32:08.086Z,101026.44
2019-06-15T18:34:37.707Z,101022.70
2019-06-15T18:37:07.786Z,101016.67
2019-06-15T18:39:37.510Z,101017.16
2019-06-15T18:42:07.735Z,101026.14
2019-06-15T18:44:37.597Z,101024.20
2019-06-15T18:47:07.293Z,101023.39
2019-06-15T18:49:36.932Z,101015.38
2019-06-15T18:52:06.579Z,101023.87
2019-06-15T18:54:36.468Z,101025.16
2019-06-15T18:57:07.409Z,101027.13
2019-06-15T18:59:37.249Z,101025.98
2019-06-15T19:02:06.866Z,101030.37
2019-06-15T19:04:36.490Z,101020.76
2019-06-15T19:07:07.231Z,101004.14
2019-06-15T19:09:38.474Z,101009.51
2019-06-15T19:12:09.727Z,101003.33
2019-06-15T19:14:40.401Z,100996.66
2019-06-15T19:17:11.542Z,100987.69
2019-06-15T19:19:41.195Z,100966.35
2019-06-15T19:22:10.819Z,100958.53
2019-06-15T19:24:40.438Z,100951.04
2019-06-15T19:27:10.068Z,100953.16
2019-06-15T19:29:39.717Z,100939.30
2019-06-15T19:32:09.377Z,100939.45
2019-06-15T19:34:47.195Z,100944.98
2019-06-15T19:37:10.770Z,100933.08
2019-06-15T19:39:40.892Z,100932.09
2019-06-15T19:42:10.515Z,100928.34
2019-06-15T19:44:40.167Z,100935.05
2019-06-15T19:47:09.796Z,100928.38
2019-06-15T19:49:39.406Z,100907.53
2019-06-15T19:52:09.132Z,100899.52
2019-06-15T19:54:38.758Z,100872.61
2019-06-15T19:57:08.386Z,100863.66
2019-06-15T19:59:38.071Z,100851.59
2019-06-15T20:02:10.764Z,100845.23
2019-06-15T20:04:39.022Z,100849.34
2019-06-15T20:07:08.693Z,100854.73
2019-06-15T20:09:38.311Z,100856.72
2019-06-15T20:12:18.184Z,100865.86
2019-06-15T20:14:40.041Z,100842.89
2019-06-15T20:17:09.663Z,100835.89
2019-06-15T20:19:39.286Z,100811.48
2019-06-15T20:22:08.957Z,100813.44
2019-06-15T20:24:38.586Z,100804.62
2019-06-15T20:27:10.455Z,100804.80
2019-06-15T20:29:40.341Z,100804.80
2019-06-15T20:32:10.140Z,100801.72
2019-06-15T20:34:39.751Z,100823.20
2019-06-15T20:37:09.414Z,100894.58
2019-06-15T20:39:40.133Z,100928.32
2019-06-15T20:42:09.756Z,100967.39
2019-06-15T20:44:39.572Z,101027.76
2019-06-15T20:47:09.209Z,101102.59
2019-06-15T20:49:38.914Z,101188.25
2019-06-15T20:52:08.620Z,101209.56
2019-06-15T20:54:38.239Z,101156.58
2019-06-15T20:57:07.868Z,101137.75
2019-06-15T20:59:37.545Z,101180.83
2019-06-15T21:02:07.247Z,101191.55
2019-06-15T21:04:37.245Z,101163.11
2019-06-15T21:07:06.933Z,101146.58
2019-06-15T21:09:36.592Z,101154.18
2019-06-15T21:12:06.762Z,101171.53
2019-06-15T21:14:36.782Z,101169.92
2019-06-15T21:17:06.925Z,101168.31
2019-06-15T21:19:36.684Z,101178.60
2019-06-15T21:22:06.540Z,101185.38
2019-06-15T21:24:37.277Z,101168.84
2019-06-15T21:27:07.173Z,101162.27
2019-06-15T21:29:37.175Z,101145.51
2019-06-15T21:32:06.766Z,101125.53
2019-06-15T21:34:36.422Z,101133.50
2019-06-15T21:37:06.650Z,101135.65
2019-06-15T21:39:36.627Z,101141.73
2019-06-15T21:42:06.457Z,101177.74
2019-06-15T21:44:36.271Z,101179.53
2019-06-15T21:47:06.936Z,101177.23
2019-06-15T21:49:36.757Z,101173.13
2019-06-15T21:52:07.129Z,101173.13
2019-06-15T21:54:37.062Z,101166.39
2019-06-15T21:57:07.157Z,101140.73
2019-06-15T21:59:37.191Z,101125.13
2019-06-15T22:02:07.247Z,101125.13
2019-06-15T22:04:37.102Z,101125.27
2019-06-15T22:07:06.790Z,101133.91
2019-06-15T22:09:36.601Z,101144.38
2019-06-15T22:12:06.983Z,101139.80
2019-06-15T22:14:36.808Z,101140.27
2019-06-15T22:17:06.868Z,101140.27
2019-06-15T22:19:37.006Z,101147.11
2019-06-15T22:22:07.769Z,101168.13
2019-06-15T22:24:37.520Z,101170.20
2019-06-15T22:27:07.151Z,101159.37
2019-06-15T22:29:36.832Z,101137.39
2019-06-15T22:32:07.020Z,101124.45
2019-06-15T22:34:36.759Z,101128.59
2019-06-15T22:37:08.146Z,101126.73
2019-06-15T22:39:37.796Z,101126.73
2019-06-15T22:42:07.418Z,101112.16
2019-06-15T22:44:37.372Z,101119.33
2019-06-15T22:47:07.067Z,101114.36
2019-06-15T22:49:36.791Z,101088.56
2019-06-15T22:52:06.742Z,101064.30
2019-06-15T22:54:37.699Z,101061.71
2019-06-15T22:57:07.504Z,101050.62
2019-06-15T22:59:37.226Z,101028.77
2019-06-15T23:02:07.118Z,100974.69
2019-06-15T23:04:37.226Z,100974.69
2019-06-15T23:07:08.713Z,100957.88
2019-06-15T23:09:38.376Z,100923.97
2019-06-15T23:12:08.249Z,100923.97
2019-06-15T23:14:38.008Z,100961.55
2019-06-15T23:17:07.821Z,100991.38
2019-06-15T23:19:37.483Z,100991.38
2019-06-15T23:22:07.790Z,101020.81
2019-06-15T23:24:37.508Z,101034.44
2019-06-15T23:27:46.995Z,101046.87
2019-06-15T23:30:51.241Z,101039.27
2019-06-15T23:33:21.323Z,101025.03
2019-06-15T23:36:28.661Z,100997.09
2019-06-15T23:38:58.909Z,100975.77
2019-06-15T23:41:28.616Z,100954.63
2019-06-15T23:43:58.315Z,100959.95
2019-06-15T23:46:27.988Z,100953.88
2019-06-15T23:49:03.579Z,100938.13
2019-06-15T23:52:12.327Z,100938.13
2019-06-15T23:54:42.036Z,100913.43
2019-06-15T23:57:11.668Z,100888.86
2019-06-15T23:59:41.350Z,100871.43
